createdAt,value
2023-03-31T00:00:58.397Z,5.43
2023-03-31T00:03:25.861Z,5.83
2023-03-31T00:06:01.465Z,7.53
2023-03-31T00:08:35.988Z,6.17
2023-03-31T00:11:07.811Z,6.23
2023-03-31T00:13:37.021Z,6.80
2023-03-31T00:16:08.068Z,6.90
2023-03-31T00:18:37.671Z,7.17
2023-03-31T00:21:14.953Z,6.77
2023-03-31T00:23:42.802Z,7.17
2023-03-31T00:26:10.084Z,7.93
2023-03-31T00:28:37.408Z,7.53
2023-03-31T00:31:05.046Z,7.63
2023-03-31T00:33:32.323Z,7.47
2023-03-31T00:36:06.750Z,7.37
2023-03-31T00:38:34.782Z,7.70
2023-03-31T00:41:04.174Z,7.90
2023-03-31T00:43:35.068Z,7.57
2023-03-31T00:46:20.102Z,8.10
2023-03-31T00:48:54.256Z,7.93
2023-03-31T00:51:23.962Z,7.80
2023-03-31T00:53:57.971Z,7.47
2023-03-31T00:56:26.960Z,7.60
2023-03-31T00:58:58.306Z,6.80
2023-03-31T01:01:26.844Z,7.13
2023-03-31T01:03:54.666Z,6.20
2023-03-31T01:06:24.013Z,6.47
2023-03-31T01:08:52.166Z,7.03
2023-03-31T01:11:27.791Z,6.23
2023-03-31T01:13:56.986Z,6.10
2023-03-31T01:16:24.579Z,5.07
2023-03-31T01:18:52.229Z,5.90
2023-03-31T01:21:49.367Z,6.10
2023-03-31T01:24:54.130Z,5.63
2023-03-31T01:27:24.530Z,5.87
2023-03-31T01:30:07.673Z,4.93
2023-03-31T01:32:49.998Z,5.27
2023-03-31T01:35:29.341Z,5.03
2023-03-31T01:38:32.611Z,5.37
2023-03-31T01:41:23.008Z,5.43
2023-03-31T01:44:02.082Z,5.37
2023-03-31T01:47:01.570Z,5.40
2023-03-31T01:49:50.100Z,5.50
2023-03-31T01:52:28.538Z,5.30
2023-03-31T01:55:30.914Z,5.50
2023-03-31T01:58:07.684Z,5.60
2023-03-31T02:00:42.327Z,5.17
2023-03-31T02:03:19.629Z,5.47
2023-03-31T02:05:55.659Z,5.13
2023-03-31T02:08:31.491Z,4.67
2023-03-31T02:11:00.339Z,5.20
2023-03-31T02:13:30.222Z,5.07
2023-03-31T02:16:03.420Z,4.27
2023-03-31T02:18:33.638Z,4.63
2023-03-31T02:21:01.728Z,4.63
2023-03-31T02:23:32.196Z,4.53
2023-03-31T02:26:20.582Z,5.00
2023-03-31T02:28:47.924Z,4.30
2023-03-31T02:31:43.089Z,4.30
2023-03-31T02:34:10.574Z,4.50
2023-03-31T02:36:38.809Z,4.90
2023-03-31T02:39:12.922Z,4.50
2023-03-31T02:41:40.461Z,5.60
2023-03-31T02:44:07.912Z,5.63
2023-03-31T02:46:35.516Z,4.90
2023-03-31T02:49:06.038Z,6.00
2023-03-31T02:51:47.943Z,5.60
2023-03-31T02:54:36.077Z,5.73
2023-03-31T02:57:21.298Z,6.03
2023-03-31T02:59:48.567Z,6.03
2023-03-31T03:02:18.753Z,5.30
2023-03-31T03:05:14.027Z,5.93
2023-03-31T03:08:03.827Z,6.13
2023-03-31T03:10:54.349Z,6.07
2023-03-31T03:13:36.829Z,6.20
2023-03-31T03:16:08.765Z,5.67
2023-03-31T03:18:36.336Z,5.00
2023-03-31T03:21:03.802Z,6.17
2023-03-31T03:23:31.627Z,5.77
2023-03-31T03:25:58.897Z,5.30
2023-03-31T03:28:26.160Z,5.10
2023-03-31T03:30:53.880Z,6.10
2023-03-31T03:33:25.204Z,6.23
2023-03-31T03:35:52.530Z,6.43
2023-03-31T03:38:20.001Z,8.00
2023-03-31T03:40:49.633Z,7.73
2023-03-31T03:43:17.411Z,12.57
2023-03-31T03:45:49.226Z,9.23
2023-03-31T03:48:16.789Z,9.27
2023-03-31T03:50:45.786Z,8.80
2023-03-31T03:53:14.239Z,8.37
2023-03-31T03:55:41.634Z,12.07
2023-03-31T03:58:09.182Z,18.43
2023-03-31T04:00:36.427Z,18.17
2023-03-31T04:03:04.367Z,22.00
2023-03-31T04:05:31.710Z,23.57
2023-03-31T04:07:58.960Z,17.90
2023-03-31T04:10:26.254Z,13.70
2023-03-31T04:12:53.505Z,12.70
2023-03-31T04:15:21.277Z,14.47
2023-03-31T04:17:51.221Z,15.93
2023-03-31T04:20:18.651Z,14.83
2023-03-31T04:22:47.645Z,12.97
2023-03-31T04:25:16.732Z,12.30
2023-03-31T04:27:50.944Z,13.27
2023-03-31T04:30:24.508Z,11.97
2023-03-31T04:32:55.054Z,11.23
2023-03-31T04:35:24.339Z,10.60
2023-03-31T04:37:59.346Z,10.73
2023-03-31T04:40:27.017Z,10.13
2023-03-31T04:42:54.261Z,9.97
2023-03-31T04:45:21.535Z,10.77
2023-03-31T04:47:48.807Z,11.17
2023-03-31T04:50:17.255Z,10.63
2023-03-31T04:52:45.887Z,13.07
2023-03-31T04:55:13.206Z,11.20
2023-03-31T04:57:43.316Z,12.03
2023-03-31T05:00:12.229Z,11.30
2023-03-31T05:02:41.058Z,11.07
2023-03-31T05:05:09.285Z,10.63
2023-03-31T05:07:36.643Z,9.00
2023-03-31T05:10:04.309Z,6.83
2023-03-31T05:12:37.928Z,7.40
2023-03-31T05:15:07.027Z,8.47
2023-03-31T05:17:36.007Z,8.50
2023-03-31T05:20:07.367Z,8.67
2023-03-31T05:22:37.416Z,8.30
2023-03-31T05:25:07.767Z,7.40
2023-03-31T05:27:36.263Z,7.63
2023-03-31T05:30:05.376Z,7.50
2023-03-31T05:32:32.692Z,7.63
2023-03-31T05:35:00.118Z,6.97
2023-03-31T05:37:27.936Z,7.37
2023-03-31T05:39:55.180Z,7.20
2023-03-31T05:42:22.447Z,7.73
2023-03-31T05:44:49.725Z,8.10
2023-03-31T05:47:20.331Z,7.97
2023-03-31T05:49:47.575Z,7.57
2023-03-31T05:52:14.929Z,7.83
2023-03-31T05:54:43.161Z,7.07
2023-03-31T05:57:13.792Z,6.83
2023-03-31T05:59:42.541Z,6.27
2023-03-31T06:02:15.885Z,6.93
2023-03-31T06:04:44.041Z,6.33
2023-03-31T06:07:11.656Z,5.40
2023-03-31T06:09:38.907Z,5.33
2023-03-31T06:12:07.503Z,5.17
2023-03-31T06:14:34.925Z,5.00
2023-03-31T06:17:02.210Z,5.40
2023-03-31T06:19:30.080Z,5.97
2023-03-31T06:21:57.895Z,5.73
2023-03-31T06:24:25.268Z,5.30
2023-03-31T06:26:53.749Z,4.90
2023-03-31T06:29:21.550Z,4.80
2023-03-31T06:31:48.905Z,5.07
2023-03-31T06:34:17.759Z,4.43
2023-03-31T06:36:45.937Z,4.37
2023-03-31T06:39:13.389Z,4.57
2023-03-31T06:41:40.677Z,4.47
2023-03-31T06:44:08.133Z,3.87
2023-03-31T06:46:35.412Z,3.30
2023-03-31T06:49:02.835Z,3.77
2023-03-31T06:51:32.504Z,3.60
2023-03-31T06:54:00.227Z,3.17
2023-03-31T06:56:28.356Z,3.87
2023-03-31T06:58:55.971Z,4.60
2023-03-31T07:01:23.475Z,4.30
2023-03-31T07:03:50.960Z,3.83
2023-03-31T07:06:18.290Z,3.87
2023-03-31T07:08:45.550Z,6.40
2023-03-31T07:11:12.870Z,6.73
2023-03-31T07:13:40.163Z,7.33
2023-03-31T07:16:08.577Z,9.90
2023-03-31T07:18:37.033Z,6.90
2023-03-31T07:21:09.083Z,9.37
2023-03-31T07:23:38.784Z,8.57
2023-03-31T07:26:06.889Z,7.90
2023-03-31T07:28:37.479Z,8.67
2023-03-31T07:31:12.294Z,6.90
2023-03-31T07:33:39.611Z,5.83
2023-03-31T07:36:11.670Z,5.60
2023-03-31T07:38:40.915Z,5.37
2023-03-31T07:41:12.968Z,28.47
2023-03-31T07:43:40.856Z,32.67
2023-03-31T07:46:15.203Z,7.47
2023-03-31T07:48:42.549Z,5.00
2023-03-31T07:51:09.937Z,5.87
2023-03-31T07:53:37.869Z,6.20
2023-03-31T07:56:05.503Z,3.93
2023-03-31T07:58:32.914Z,4.83
2023-03-31T08:01:00.218Z,3.60
2023-03-31T08:03:27.457Z,3.60
2023-03-31T08:05:55.355Z,4.07
2023-03-31T08:08:22.953Z,4.33
2023-03-31T08:10:51.089Z,7.00
2023-03-31T08:13:18.394Z,6.83
2023-03-31T08:15:45.814Z,4.67
2023-03-31T08:18:13.144Z,6.50
2023-03-31T08:20:40.436Z,6.47
2023-03-31T08:23:09.462Z,4.23
2023-03-31T08:25:40.306Z,9.60
2023-03-31T08:28:10.957Z,4.50
2023-03-31T08:30:39.412Z,6.83
2023-03-31T08:33:08.142Z,11.47
2023-03-31T08:35:36.456Z,8.90
2023-03-31T08:38:03.921Z,12.87
2023-03-31T08:40:32.739Z,10.33
2023-03-31T08:43:12.219Z,4.73
2023-03-31T08:45:46.745Z,4.47
2023-03-31T08:48:39.002Z,3.27
2023-03-31T08:51:13.335Z,2.67
2023-03-31T08:53:45.666Z,2.80
2023-03-31T08:56:19.817Z,8.27
2023-03-31T08:58:52.571Z,4.00
2023-03-31T09:01:55.672Z,4.40
2023-03-31T09:04:38.723Z,3.60
2023-03-31T09:07:20.952Z,4.60
2023-03-31T09:10:11.609Z,4.67
2023-03-31T09:12:56.419Z,2.57
2023-03-31T09:15:29.478Z,3.20
2023-03-31T09:18:00.845Z,2.10
2023-03-31T09:20:35.143Z,1.30
2023-03-31T09:23:25.019Z,1.50
2023-03-31T09:25:52.403Z,1.23
2023-03-31T09:28:22.166Z,1.33
2023-03-31T09:30:50.232Z,1.63
2023-03-31T09:33:24.707Z,1.50
2023-03-31T09:35:52.292Z,1.50
2023-03-31T09:38:19.635Z,1.47
2023-03-31T09:40:47.337Z,1.43
2023-03-31T09:43:27.338Z,1.30
2023-03-31T09:48:36.377Z,1.10
2023-03-31T09:51:07.396Z,1.87
2023-03-31T09:53:47.799Z,1.73
2023-03-31T09:56:36.366Z,1.70
2023-03-31T09:59:04.665Z,7.83
2023-03-31T10:01:32.757Z,6.17
2023-03-31T10:04:00.414Z,2.77
2023-03-31T10:06:27.934Z,2.43
2023-03-31T10:08:57.030Z,1.73
2023-03-31T10:11:27.943Z,1.43
2023-03-31T10:14:07.142Z,1.70
2023-03-31T10:16:55.567Z,2.40
2023-03-31T10:19:28.182Z,1.43
2023-03-31T10:22:06.973Z,1.80
2023-03-31T10:24:42.717Z,1.90
2023-03-31T10:27:26.930Z,1.60
2023-03-31T10:29:55.808Z,1.37
2023-03-31T10:32:29.443Z,2.37
2023-03-31T10:35:06.634Z,1.70
2023-03-31T10:37:37.123Z,1.70
2023-03-31T10:40:32.682Z,1.20
2023-03-31T10:43:14.273Z,2.10
2023-03-31T10:45:55.365Z,1.17
2023-03-31T10:48:28.948Z,1.23
2023-03-31T10:51:13.491Z,1.40
2023-03-31T10:53:43.460Z,1.40
2023-03-31T10:56:48.665Z,1.30
2023-03-31T10:59:36.565Z,1.13
2023-03-31T11:02:22.706Z,1.57
2023-03-31T11:05:25.755Z,1.20
2023-03-31T11:08:20.089Z,1.50
2023-03-31T11:11:23.634Z,1.80
2023-03-31T11:14:02.828Z,1.50
2023-03-31T11:16:33.171Z,1.67
2023-03-31T11:19:30.819Z,1.40
2023-03-31T11:22:10.741Z,1.50
2023-03-31T11:24:59.329Z,1.90
2023-03-31T11:28:09.320Z,2.20
2023-03-31T11:30:44.948Z,2.07
2023-03-31T11:33:42.626Z,3.17
2023-03-31T11:36:18.620Z,1.90
2023-03-31T11:39:07.731Z,2.03
2023-03-31T11:41:45.940Z,2.53
2023-03-31T11:44:15.578Z,1.77
2023-03-31T11:47:09.877Z,2.23
2023-03-31T11:49:46.352Z,1.60
2023-03-31T11:52:18.991Z,1.10
2023-03-31T11:55:03.310Z,1.50
2023-03-31T11:57:36.659Z,1.63
2023-03-31T12:00:21.315Z,2.40
2023-03-31T12:03:22.007Z,1.70
2023-03-31T12:05:54.379Z,1.70
2023-03-31T12:08:37.372Z,2.20
2023-03-31T12:11:11.160Z,1.37
2023-03-31T12:14:01.697Z,3.17
2023-03-31T12:16:31.184Z,3.13
2023-03-31T12:19:19.490Z,2.30
2023-03-31T12:22:08.089Z,3.47
2023-03-31T12:24:36.599Z,1.67
2023-03-31T12:27:28.147Z,1.57
2023-03-31T12:30:00.401Z,4.60
2023-03-31T12:32:31.920Z,5.03
2023-03-31T12:35:17.088Z,11.77
2023-03-31T12:38:11.964Z,6.77
2023-03-31T12:41:20.419Z,8.27
2023-03-31T12:44:16.044Z,14.50
2023-03-31T12:46:43.449Z,13.27
2023-03-31T12:49:16.856Z,9.83
2023-03-31T12:51:56.501Z,8.50
2023-03-31T12:54:52.471Z,3.63
2023-03-31T12:57:25.525Z,3.20
2023-03-31T13:00:25.648Z,2.37
2023-03-31T13:03:31.537Z,3.30
2023-03-31T13:05:58.828Z,2.63
2023-03-31T13:08:55.667Z,3.13
2023-03-31T13:11:38.337Z,4.53
2023-03-31T13:14:28.046Z,3.67
2023-03-31T13:17:13.306Z,4.97
2023-03-31T13:19:42.434Z,4.20
2023-03-31T13:22:32.906Z,3.17
2023-03-31T13:25:28.345Z,4.50
2023-03-31T13:27:56.104Z,11.10
2023-03-31T13:30:42.502Z,8.43
2023-03-31T13:33:11.121Z,11.47
2023-03-31T13:35:42.988Z,7.83
2023-03-31T13:38:23.196Z,13.80
2023-03-31T13:41:29.458Z,107.50
2023-03-31T13:44:20.860Z,79.60
2023-03-31T13:47:27.178Z,48.43
2023-03-31T13:50:14.810Z,15.07
2023-03-31T13:52:54.224Z,16.43
2023-03-31T13:55:48.926Z,15.60
2023-03-31T13:58:46.952Z,11.80
2023-03-31T14:01:39.093Z,10.20
2023-03-31T14:04:09.737Z,9.03
2023-03-31T14:07:30.033Z,12.40
2023-03-31T14:10:00.735Z,10.47
2023-03-31T14:12:33.944Z,13.30
2023-03-31T14:15:01.739Z,21.77
2023-03-31T14:17:36.219Z,11.47
2023-03-31T14:20:43.462Z,38.83
2023-03-31T14:23:19.950Z,44.90
2023-03-31T14:26:01.483Z,12.27
2023-03-31T14:29:11.596Z,6.50
2023-03-31T14:32:01.996Z,22.90
2023-03-31T14:34:36.353Z,3.87
2023-03-31T14:37:08.608Z,4.87
2023-03-31T14:39:40.795Z,4.43
2023-03-31T14:42:37.505Z,4.30
2023-03-31T14:45:16.102Z,5.03
2023-03-31T14:47:43.858Z,3.00
2023-03-31T14:50:17.595Z,4.50
2023-03-31T14:52:52.597Z,4.33
2023-03-31T14:55:28.656Z,3.77
2023-03-31T14:58:03.568Z,2.33
2023-03-31T15:00:36.383Z,2.87
2023-03-31T15:03:06.774Z,3.17
2023-03-31T15:05:36.934Z,4.73
2023-03-31T15:08:12.188Z,6.80
2023-03-31T15:10:44.600Z,6.03
2023-03-31T15:13:19.490Z,9.00
2023-03-31T15:15:46.850Z,14.97
2023-03-31T15:18:16.431Z,12.30
2023-03-31T15:20:45.385Z,7.83
2023-03-31T15:23:30.036Z,20.27
2023-03-31T15:26:22.565Z,5.97
2023-03-31T15:29:08.384Z,28.20
2023-03-31T15:31:36.691Z,6.47
2023-03-31T15:34:33.749Z,5.20
2023-03-31T15:37:07.195Z,7.83
2023-03-31T15:39:37.657Z,4.63
2023-03-31T15:42:08.742Z,15.63
2023-03-31T15:44:43.526Z,5.40
2023-03-31T15:47:19.222Z,2.47
2023-03-31T15:50:13.338Z,2.60
2023-03-31T15:52:48.588Z,2.20
2023-03-31T15:55:39.818Z,2.37
2023-03-31T15:58:11.934Z,4.17
2023-03-31T16:00:48.344Z,5.97
2023-03-31T16:03:25.025Z,3.07
2023-03-31T16:05:58.150Z,2.60
2023-03-31T16:08:53.118Z,1.90
2023-03-31T16:11:23.353Z,2.57
2023-03-31T16:13:54.511Z,1.77
2023-03-31T16:16:24.258Z,3.40
2023-03-31T16:18:55.842Z,1.90
2023-03-31T16:21:26.721Z,3.27
2023-03-31T16:23:57.517Z,2.00
2023-03-31T16:26:28.066Z,8.43
2023-03-31T16:28:57.859Z,3.30
2023-03-31T16:31:34.999Z,10.23
2023-03-31T16:34:04.484Z,12.60
2023-03-31T16:36:31.758Z,6.20
2023-03-31T16:39:02.190Z,44.33
2023-03-31T16:41:30.448Z,42.90
2023-03-31T16:43:58.075Z,69.77
2023-03-31T16:46:25.967Z,49.57
2023-03-31T16:48:53.488Z,35.27
2023-03-31T16:51:21.580Z,221.20
2023-03-31T16:53:49.441Z,443.93
2023-03-31T16:56:17.018Z,198.43
2023-03-31T16:58:45.574Z,64.40
2023-03-31T17:01:13.304Z,54.37
2023-03-31T17:03:42.470Z,48.77
2023-03-31T17:06:14.628Z,36.60
2023-03-31T17:08:42.164Z,21.80
2023-03-31T17:11:12.825Z,50.47
2023-03-31T17:13:42.372Z,38.23
2023-03-31T17:16:18.491Z,31.37
2023-03-31T17:18:51.879Z,20.93
2023-03-31T17:21:19.844Z,21.33
2023-03-31T17:23:48.037Z,25.10
2023-03-31T17:26:16.512Z,35.47
2023-03-31T17:28:44.156Z,26.00
2023-03-31T17:31:17.474Z,18.37
2023-03-31T17:33:47.892Z,13.57
2023-03-31T17:36:15.922Z,15.53
2023-03-31T17:38:43.698Z,13.10
2023-03-31T17:41:13.259Z,18.03
2023-03-31T17:43:44.345Z,21.90
2023-03-31T17:46:12.930Z,25.87
2023-03-31T17:48:41.033Z,22.80
2023-03-31T17:51:14.063Z,35.77
2023-03-31T17:53:43.073Z,71.67
2023-03-31T17:56:10.821Z,77.17
2023-03-31T17:58:38.399Z,49.67
2023-03-31T18:01:08.053Z,73.20
2023-03-31T18:03:38.613Z,52.00
2023-03-31T18:06:11.842Z,62.77
2023-03-31T18:08:40.285Z,96.77
2023-03-31T18:11:08.808Z,47.27
2023-03-31T18:13:37.787Z,74.93
2023-03-31T18:16:06.559Z,37.87
2023-03-31T18:18:34.808Z,41.17
2023-03-31T18:21:07.195Z,41.87
2023-03-31T18:23:35.232Z,71.20
2023-03-31T18:26:03.091Z,40.37
2023-03-31T18:28:31.070Z,32.40
2023-03-31T18:30:58.460Z,32.13
2023-03-31T18:33:26.085Z,33.13
2023-03-31T18:35:53.563Z,9.13
2023-03-31T18:38:21.177Z,7.93
2023-03-31T18:40:50.772Z,7.13
2023-03-31T18:43:18.815Z,19.43
2023-03-31T18:45:51.510Z,18.97
2023-03-31T18:48:21.971Z,40.83
2023-03-31T18:50:52.430Z,150.43
2023-03-31T18:53:21.438Z,19.37
2023-03-31T18:55:54.273Z,10.17
2023-03-31T18:58:21.731Z,9.90
2023-03-31T19:00:49.124Z,67.90
2023-03-31T19:03:17.203Z,13.00
2023-03-31T19:05:45.217Z,8.40
2023-03-31T19:08:12.643Z,8.30
2023-03-31T19:10:40.094Z,7.10
2023-03-31T19:13:07.982Z,8.90
2023-03-31T19:15:37.602Z,16.97
2023-03-31T19:18:07.247Z,20.37
2023-03-31T19:20:34.839Z,13.90
2023-03-31T19:23:02.484Z,13.33
2023-03-31T19:25:32.268Z,13.70
2023-03-31T19:27:59.858Z,10.97
2023-03-31T19:30:29.673Z,9.30
2023-03-31T19:32:57.148Z,8.83
2023-03-31T19:35:25.948Z,9.07
2023-03-31T19:37:53.558Z,8.33
2023-03-31T19:40:21.391Z,8.27
2023-03-31T19:42:48.671Z,7.83
2023-03-31T19:45:16.407Z,5.73
2023-03-31T19:47:44.027Z,5.23
2023-03-31T19:50:13.616Z,4.97
2023-03-31T19:52:41.023Z,5.37
2023-03-31T19:55:08.463Z,5.40
2023-03-31T19:57:39.394Z,4.93
2023-03-31T20:00:08.256Z,4.03
2023-03-31T20:02:36.018Z,3.57
2023-03-31T20:05:03.643Z,4.00
2023-03-31T20:07:31.351Z,3.40
2023-03-31T20:09:58.692Z,3.07
2023-03-31T20:12:26.325Z,3.27
2023-03-31T20:14:53.574Z,3.60
2023-03-31T20:17:21.468Z,2.70
2023-03-31T20:19:48.890Z,2.40
2023-03-31T20:22:16.225Z,2.80
2023-03-31T20:24:43.551Z,2.90
2023-03-31T20:27:11.045Z,2.40
2023-03-31T20:29:38.424Z,2.80
2023-03-31T20:32:06.114Z,2.90
2023-03-31T20:34:34.413Z,2.53
2023-03-31T20:37:02.529Z,2.63
2023-03-31T20:39:30.448Z,2.40
2023-03-31T20:41:58.363Z,2.10
2023-03-31T20:44:25.836Z,2.40
2023-03-31T20:46:53.578Z,2.30
2023-03-31T20:49:20.862Z,2.00
2023-03-31T20:51:49.932Z,2.30
2023-03-31T20:54:17.613Z,2.20
2023-03-31T20:56:47.857Z,2.10
2023-03-31T20:59:16.137Z,2.47
2023-03-31T21:01:45.356Z,2.10
2023-03-31T21:04:13.069Z,2.00
2023-03-31T21:06:43.079Z,1.80
2023-03-31T21:09:12.558Z,2.00
2023-03-31T21:11:41.018Z,2.30
2023-03-31T21:14:12.312Z,2.07
2023-03-31T21:16:43.473Z,2.20
2023-03-31T21:19:11.666Z,2.40
2023-03-31T21:21:41.646Z,2.10
2023-03-31T21:24:11.895Z,2.37
2023-03-31T21:26:40.100Z,2.77
2023-03-31T21:29:07.332Z,2.33
2023-03-31T21:31:34.640Z,2.13
2023-03-31T21:34:02.853Z,2.37
2023-03-31T21:36:30.159Z,2.67
2023-03-31T21:38:58.155Z,2.53
2023-03-31T21:41:28.437Z,2.07
2023-03-31T21:43:56.338Z,3.30
2023-03-31T21:46:27.302Z,2.47
2023-03-31T21:48:55.397Z,2.33
2023-03-31T21:51:23.439Z,2.63
2023-03-31T21:53:55.446Z,2.40
2023-03-31T21:56:24.657Z,2.93
2023-03-31T21:58:52.216Z,2.50
2023-03-31T22:01:20.934Z,2.60
2023-03-31T22:03:49.084Z,2.60
2023-03-31T22:06:17.063Z,2.67
2023-03-31T22:08:44.521Z,2.87
2023-03-31T22:11:12.932Z,3.00
2023-03-31T22:13:41.092Z,2.50
2023-03-31T22:16:19.663Z,3.27
2023-03-31T22:18:47.914Z,2.80
2023-03-31T22:21:17.814Z,2.50
2023-03-31T22:23:45.197Z,2.87
2023-03-31T22:26:12.846Z,3.70
2023-03-31T22:28:40.121Z,3.00
2023-03-31T22:31:07.596Z,3.20
2023-03-31T22:33:34.936Z,2.93
2023-03-31T22:36:02.232Z,3.27
2023-03-31T22:38:29.605Z,2.90
2023-03-31T22:40:57.292Z,2.93
2023-03-31T22:43:24.655Z,3.27
2023-03-31T22:45:52.228Z,3.10
2023-03-31T22:48:19.811Z,3.10
2023-03-31T22:50:47.126Z,2.50
2023-03-31T22:53:14.916Z,3.00
2023-03-31T22:55:54.333Z,3.00
2023-03-31T22:58:23.048Z,3.07
2023-03-31T23:01:00.803Z,3.23
2023-03-31T23:03:28.651Z,3.30
2023-03-31T23:05:56.119Z,2.83
2023-03-31T23:08:23.857Z,3.47
2023-03-31T23:11:00.996Z,3.13
2023-03-31T23:13:31.041Z,2.87
2023-03-31T23:16:08.113Z,3.07
2023-03-31T23:18:36.253Z,2.70
2023-03-31T23:21:07.026Z,3.27
2023-03-31T23:23:34.340Z,3.53
2023-03-31T23:26:09.016Z,2.93
2023-03-31T23:28:38.331Z,3.10
2023-03-31T23:31:05.950Z,2.70
2023-03-31T23:33:33.795Z,3.07
2023-03-31T23:36:03.346Z,3.40
2023-03-31T23:38:32.323Z,3.20
2023-03-31T23:41:00.128Z,2.83
2023-03-31T23:43:28.328Z,3.30
2023-03-31T23:48:22.148Z,2.93
2023-03-31T23:50:49.689Z,3.13
2023-03-31T23:53:17.260Z,2.93
2023-03-31T23:55:44.648Z,4.03
2023-03-31T23:58:11.890Z,3.73
